sensor_id;sensor_type;location;lat;lon;timestamp;P1;durP1;ratioP1;P2;durP2;ratioP2
16093;SDS011;8151;47.824;12.092;2023-05-16T00:00:17;3.10;;;2.10;;
16093;SDS011;8151;47.824;12.092;2023-05-16T00:02:50;2.60;;;2.40;;
16093;SDS011;8151;47.824;12.092;2023-05-16T00:05:19;2.43;;;2.20;;
16093;SDS011;8151;47.824;12.092;2023-05-16T00:07:49;2.77;;;1.83;;
16093;SDS011;8151;47.824;12.092;2023-05-16T00:10:18;2.30;;;2.10;;
16093;SDS011;8151;47.824;12.092;2023-05-16T00:12:46;2.43;;;2.23;;
16093;SDS011;8151;47.824;12.092;2023-05-16T00:15:17;4.73;;;2.00;;
16093;SDS011;8151;47.824;12.092;2023-05-16T00:17:46;3.63;;;2.23;;
16093;SDS011;8151;47.824;12.092;2023-05-16T00:20:18;2.80;;;2.50;;
16093;SDS011;8151;47.824;12.092;2023-05-16T00:22:49;2.17;;;2.00;;
16093;SDS011;8151;47.824;12.092;2023-05-16T00:25:18;3.50;;;2.30;;
16093;SDS011;8151;47.824;12.092;2023-05-16T00:27:46;2.10;;;2.00;;
16093;SDS011;8151;47.824;12.092;2023-05-16T00:30:16;5.20;;;2.30;;
16093;SDS011;8151;47.824;12.092;2023-05-16T00:32:44;2.30;;;2.10;;
16093;SDS011;8151;47.824;12.092;2023-05-16T00:35:13;3.47;;;2.40;;
16093;SDS011;8151;47.824;12.092;2023-05-16T00:37:44;2.77;;;2.10;;
16093;SDS011;8151;47.824;12.092;2023-05-16T00:40:12;4.83;;;2.50;;
16093;SDS011;8151;47.824;12.092;2023-05-16T00:42:41;2.20;;;2.00;;
16093;SDS011;8151;47.824;12.092;2023-05-16T00:45:09;3.10;;;2.40;;
16093;SDS011;8151;47.824;12.092;2023-05-16T00:47:46;2.17;;;2.07;;
16093;SDS011;8151;47.824;12.092;2023-05-16T00:50:16;3.63;;;2.60;;
16093;SDS011;8151;47.824;12.092;2023-05-16T00:52:47;4.70;;;2.43;;
16093;SDS011;8151;47.824;12.092;2023-05-16T00:55:16;2.37;;;2.17;;
16093;SDS011;8151;47.824;12.092;2023-05-16T00:57:45;2.77;;;2.10;;
16093;SDS011;8151;47.824;12.092;2023-05-16T01:00:13;2.40;;;2.20;;
16093;SDS011;8151;47.824;12.092;2023-05-16T01:02:42;2.40;;;2.20;;
16093;SDS011;8151;47.824;12.092;2023-05-16T01:05:11;3.93;;;2.40;;
16093;SDS011;8151;47.824;12.092;2023-05-16T01:07:39;4.13;;;2.37;;
16093;SDS011;8151;47.824;12.092;2023-05-16T01:10:09;2.33;;;2.13;;
16093;SDS011;8151;47.824;12.092;2023-05-16T01:12:53;3.37;;;2.13;;
16093;SDS011;8151;47.824;12.092;2023-05-16T01:15:34;2.43;;;2.23;;
16093;SDS011;8151;47.824;12.092;2023-05-16T01:18:12;3.57;;;2.27;;
16093;SDS011;8151;47.824;12.092;2023-05-16T01:20:52;3.87;;;2.50;;
16093;SDS011;8151;47.824;12.092;2023-05-16T01:23:30;2.50;;;2.30;;
16093;SDS011;8151;47.824;12.092;2023-05-16T01:26:12;2.47;;;2.27;;
16093;SDS011;8151;47.824;12.092;2023-05-16T01:28:45;2.63;;;2.43;;
16093;SDS011;8151;47.824;12.092;2023-05-16T01:31:15;3.63;;;2.17;;
16093;SDS011;8151;47.824;12.092;2023-05-16T01:33:43;3.23;;;2.43;;
16093;SDS011;8151;47.824;12.092;2023-05-16T01:36:19;2.50;;;2.30;;
16093;SDS011;8151;47.824;12.092;2023-05-16T01:39:01;3.13;;;2.53;;
16093;SDS011;8151;47.824;12.092;2023-05-16T01:41:40;2.67;;;2.20;;
16093;SDS011;8151;47.824;12.092;2023-05-16T01:44:16;2.60;;;2.40;;
16093;SDS011;8151;47.824;12.092;2023-05-16T01:46:52;2.60;;;2.40;;
16093;SDS011;8151;47.824;12.092;2023-05-16T01:49:24;2.83;;;2.53;;
16093;SDS011;8151;47.824;12.092;2023-05-16T01:51:59;5.30;;;2.47;;
16093;SDS011;8151;47.824;12.092;2023-05-16T01:54:30;2.57;;;2.37;;
16093;SDS011;8151;47.824;12.092;2023-05-16T01:57:00;4.20;;;2.83;;
16093;SDS011;8151;47.824;12.092;2023-05-16T01:59:31;2.80;;;2.60;;
16093;SDS011;8151;47.824;12.092;2023-05-16T02:02:01;3.57;;;2.40;;
16093;SDS011;8151;47.824;12.092;2023-05-16T02:04:29;7.33;;;2.70;;
16093;SDS011;8151;47.824;12.092;2023-05-16T02:06:57;3.57;;;2.67;;
16093;SDS011;8151;47.824;12.092;2023-05-16T02:09:36;2.83;;;2.47;;
16093;SDS011;8151;47.824;12.092;2023-05-16T02:12:06;4.23;;;2.63;;
16093;SDS011;8151;47.824;12.092;2023-05-16T02:14:35;4.63;;;2.73;;
16093;SDS011;8151;47.824;12.092;2023-05-16T02:17:06;3.60;;;2.53;;
16093;SDS011;8151;47.824;12.092;2023-05-16T02:19:34;2.90;;;2.37;;
16093;SDS011;8151;47.824;12.092;2023-05-16T02:22:03;6.70;;;2.60;;
16093;SDS011;8151;47.824;12.092;2023-05-16T02:24:32;3.27;;;2.57;;
16093;SDS011;8151;47.824;12.092;2023-05-16T02:27:01;4.57;;;2.87;;
16093;SDS011;8151;47.824;12.092;2023-05-16T02:29:31;2.77;;;2.57;;
16093;SDS011;8151;47.824;12.092;2023-05-16T02:31:59;2.87;;;2.13;;
16093;SDS011;8151;47.824;12.092;2023-05-16T02:34:27;3.20;;;2.50;;
16093;SDS011;8151;47.824;12.092;2023-05-16T02:36:56;2.50;;;2.30;;
16093;SDS011;8151;47.824;12.092;2023-05-16T02:39:24;2.37;;;2.13;;
16093;SDS011;8151;47.824;12.092;2023-05-16T02:41:53;2.77;;;2.33;;
16093;SDS011;8151;47.824;12.092;2023-05-16T02:44:21;2.50;;;2.30;;
16093;SDS011;8151;47.824;12.092;2023-05-16T02:46:51;2.30;;;2.10;;
16093;SDS011;8151;47.824;12.092;2023-05-16T02:49:19;2.60;;;2.40;;
16093;SDS011;8151;47.824;12.092;2023-05-16T02:51:48;2.23;;;2.00;;
16093;SDS011;8151;47.824;12.092;2023-05-16T02:54:16;2.30;;;2.10;;
16093;SDS011;8151;47.824;12.092;2023-05-16T02:56:45;3.57;;;2.17;;
16093;SDS011;8151;47.824;12.092;2023-05-16T02:59:14;2.60;;;2.37;;
16093;SDS011;8151;47.824;12.092;2023-05-16T03:01:42;2.23;;;2.13;;
16093;SDS011;8151;47.824;12.092;2023-05-16T03:04:12;2.30;;;2.10;;
16093;SDS011;8151;47.824;12.092;2023-05-16T03:06:40;2.50;;;2.30;;
16093;SDS011;8151;47.824;12.092;2023-05-16T03:09:09;2.80;;;2.20;;
16093;SDS011;8151;47.824;12.092;2023-05-16T03:11:37;2.20;;;2.00;;
16093;SDS011;8151;47.824;12.092;2023-05-16T03:14:05;3.47;;;1.93;;
16093;SDS011;8151;47.824;12.092;2023-05-16T03:16:34;2.60;;;2.40;;
16093;SDS011;8151;47.824;12.092;2023-05-16T03:19:04;2.40;;;2.20;;
16093;SDS011;8151;47.824;12.092;2023-05-16T03:21:34;2.43;;;2.23;;
16093;SDS011;8151;47.824;12.092;2023-05-16T03:24:03;2.73;;;2.50;;
16093;SDS011;8151;47.824;12.092;2023-05-16T03:26:32;2.40;;;2.00;;
16093;SDS011;8151;47.824;12.092;2023-05-16T03:29:00;2.17;;;2.03;;
16093;SDS011;8151;47.824;12.092;2023-05-16T03:31:29;2.90;;;2.20;;
16093;SDS011;8151;47.824;12.092;2023-05-16T03:33:58;2.73;;;2.27;;
16093;SDS011;8151;47.824;12.092;2023-05-16T03:36:27;3.47;;;2.33;;
16093;SDS011;8151;47.824;12.092;2023-05-16T03:38:57;2.37;;;2.27;;
16093;SDS011;8151;47.824;12.092;2023-05-16T03:41:26;2.47;;;2.27;;
16093;SDS011;8151;47.824;12.092;2023-05-16T03:43:54;2.90;;;2.70;;
16093;SDS011;8151;47.824;12.092;2023-05-16T03:46:22;2.60;;;2.40;;
16093;SDS011;8151;47.824;12.092;2023-05-16T03:48:52;2.93;;;2.60;;
16093;SDS011;8151;47.824;12.092;2023-05-16T03:51:22;2.37;;;2.17;;
16093;SDS011;8151;47.824;12.092;2023-05-16T03:53:50;2.77;;;2.30;;
16093;SDS011;8151;47.824;12.092;2023-05-16T03:56:23;3.90;;;2.17;;
16093;SDS011;8151;47.824;12.092;2023-05-16T03:58:52;3.77;;;3.00;;
16093;SDS011;8151;47.824;12.092;2023-05-16T04:01:21;4.07;;;3.33;;
16093;SDS011;8151;47.824;12.092;2023-05-16T04:03:49;3.23;;;2.60;;
16093;SDS011;8151;47.824;12.092;2023-05-16T04:06:19;7.67;;;2.70;;
16093;SDS011;8151;47.824;12.092;2023-05-16T04:08:47;3.07;;;2.20;;
16093;SDS011;8151;47.824;12.092;2023-05-16T04:11:16;3.63;;;2.90;;
16093;SDS011;8151;47.824;12.092;2023-05-16T04:13:45;2.30;;;2.20;;
16093;SDS011;8151;47.824;12.092;2023-05-16T04:16:14;2.67;;;2.40;;
16093;SDS011;8151;47.824;12.092;2023-05-16T04:18:43;2.83;;;2.43;;
16093;SDS011;8151;47.824;12.092;2023-05-16T04:21:11;2.50;;;2.30;;
16093;SDS011;8151;47.824;12.092;2023-05-16T04:23:41;4.07;;;2.77;;
16093;SDS011;8151;47.824;12.092;2023-05-16T04:26:09;4.70;;;2.70;;
16093;SDS011;8151;47.824;12.092;2023-05-16T04:28:38;2.70;;;2.50;;
16093;SDS011;8151;47.824;12.092;2023-05-16T04:31:08;2.80;;;2.60;;
16093;SDS011;8151;47.824;12.092;2023-05-16T04:33:37;2.13;;;2.00;;
16093;SDS011;8151;47.824;12.092;2023-05-16T04:36:05;3.47;;;2.47;;
16093;SDS011;8151;47.824;12.092;2023-05-16T04:38:34;2.83;;;2.57;;
16093;SDS011;8151;47.824;12.092;2023-05-16T04:41:02;4.43;;;2.70;;
16093;SDS011;8151;47.824;12.092;2023-05-16T04:43:32;4.00;;;2.37;;
16093;SDS011;8151;47.824;12.092;2023-05-16T04:46:00;3.43;;;2.40;;
16093;SDS011;8151;47.824;12.092;2023-05-16T04:48:31;2.40;;;2.17;;
16093;SDS011;8151;47.824;12.092;2023-05-16T04:50:59;3.70;;;2.60;;
16093;SDS011;8151;47.824;12.092;2023-05-16T04:53:27;3.20;;;2.90;;
16093;SDS011;8151;47.824;12.092;2023-05-16T04:55:56;3.53;;;2.57;;
16093;SDS011;8151;47.824;12.092;2023-05-16T04:58:24;2.90;;;2.37;;
16093;SDS011;8151;47.824;12.092;2023-05-16T05:00:53;5.67;;;2.50;;
16093;SDS011;8151;47.824;12.092;2023-05-16T05:03:22;3.10;;;2.20;;
16093;SDS011;8151;47.824;12.092;2023-05-16T05:05:52;2.80;;;2.60;;
16093;SDS011;8151;47.824;12.092;2023-05-16T05:08:21;3.67;;;2.70;;
16093;SDS011;8151;47.824;12.092;2023-05-16T05:10:49;2.73;;;2.53;;
16093;SDS011;8151;47.824;12.092;2023-05-16T05:13:18;2.70;;;2.50;;
16093;SDS011;8151;47.824;12.092;2023-05-16T05:15:46;3.77;;;2.70;;
16093;SDS011;8151;47.824;12.092;2023-05-16T05:18:16;6.23;;;2.60;;
16093;SDS011;8151;47.824;12.092;2023-05-16T05:20:45;5.90;;;2.80;;
16093;SDS011;8151;47.824;12.092;2023-05-16T05:23:14;4.70;;;2.63;;
16093;SDS011;8151;47.824;12.092;2023-05-16T05:25:43;4.50;;;2.90;;
16093;SDS011;8151;47.824;12.092;2023-05-16T05:28:15;4.50;;;2.90;;
16093;SDS011;8151;47.824;12.092;2023-05-16T05:30:44;4.00;;;2.87;;
16093;SDS011;8151;47.824;12.092;2023-05-16T05:33:13;3.63;;;2.90;;
16093;SDS011;8151;47.824;12.092;2023-05-16T05:35:43;4.07;;;2.60;;
16093;SDS011;8151;47.824;12.092;2023-05-16T05:38:12;4.70;;;2.70;;
16093;SDS011;8151;47.824;12.092;2023-05-16T05:40:42;5.87;;;2.93;;
16093;SDS011;8151;47.824;12.092;2023-05-16T05:43:10;3.43;;;2.60;;
16093;SDS011;8151;47.824;12.092;2023-05-16T05:45:38;3.33;;;3.00;;
16093;SDS011;8151;47.824;12.092;2023-05-16T05:48:07;4.83;;;2.73;;
16093;SDS011;8151;47.824;12.092;2023-05-16T05:50:36;4.47;;;2.90;;
16093;SDS011;8151;47.824;12.092;2023-05-16T05:53:05;2.90;;;2.70;;
16093;SDS011;8151;47.824;12.092;2023-05-16T05:55:33;7.63;;;2.77;;
16093;SDS011;8151;47.824;12.092;2023-05-16T05:58:03;3.30;;;3.00;;
16093;SDS011;8151;47.824;12.092;2023-05-16T06:00:33;4.87;;;2.80;;
16093;SDS011;8151;47.824;12.092;2023-05-16T06:03:01;3.00;;;2.70;;
16093;SDS011;8151;47.824;12.092;2023-05-16T06:05:30;4.40;;;2.97;;
16093;SDS011;8151;47.824;12.092;2023-05-16T06:07:59;3.40;;;2.87;;
16093;SDS011;8151;47.824;12.092;2023-05-16T06:10:27;3.13;;;2.87;;
16093;SDS011;8151;47.824;12.092;2023-05-16T06:12:55;3.80;;;2.90;;
16093;SDS011;8151;47.824;12.092;2023-05-16T06:15:25;3.80;;;3.00;;
16093;SDS011;8151;47.824;12.092;2023-05-16T06:17:54;3.30;;;3.00;;
16093;SDS011;8151;47.824;12.092;2023-05-16T06:20:24;4.10;;;3.70;;
16093;SDS011;8151;47.824;12.092;2023-05-16T06:22:52;3.30;;;3.00;;
16093;SDS011;8151;47.824;12.092;2023-05-16T06:25:23;3.40;;;3.10;;
16093;SDS011;8151;47.824;12.092;2023-05-16T06:27:51;5.37;;;3.57;;
16093;SDS011;8151;47.824;12.092;2023-05-16T06:30:21;3.50;;;3.20;;
16093;SDS011;8151;47.824;12.092;2023-05-16T06:32:51;3.63;;;3.33;;
16093;SDS011;8151;47.824;12.092;2023-05-16T06:35:20;4.77;;;3.37;;
16093;SDS011;8151;47.824;12.092;2023-05-16T06:37:59;5.17;;;3.53;;
16093;SDS011;8151;47.824;12.092;2023-05-16T06:40:27;5.40;;;3.80;;
16093;SDS011;8151;47.824;12.092;2023-05-16T06:42:55;4.30;;;3.90;;
16093;SDS011;8151;47.824;12.092;2023-05-16T06:45:24;5.30;;;4.80;;
16093;SDS011;8151;47.824;12.092;2023-05-16T06:47:57;5.57;;;4.30;;
16093;SDS011;8151;47.824;12.092;2023-05-16T06:50:25;5.03;;;4.53;;
16093;SDS011;8151;47.824;12.092;2023-05-16T06:52:54;6.27;;;4.50;;
16093;SDS011;8151;47.824;12.092;2023-05-16T06:55:23;7.57;;;4.50;;
16093;SDS011;8151;47.824;12.092;2023-05-16T06:57:52;5.50;;;4.40;;
16093;SDS011;8151;47.824;12.092;2023-05-16T07:00:21;6.37;;;5.00;;
16093;SDS011;8151;47.824;12.092;2023-05-16T07:02:57;6.03;;;4.77;;
16093;SDS011;8151;47.824;12.092;2023-05-16T07:05:26;5.60;;;5.00;;
16093;SDS011;8151;47.824;12.092;2023-05-16T07:07:55;5.33;;;4.83;;
16093;SDS011;8151;47.824;12.092;2023-05-16T07:10:23;7.27;;;5.20;;
16093;SDS011;8151;47.824;12.092;2023-05-16T07:12:53;8.43;;;5.37;;
16093;SDS011;8151;47.824;12.092;2023-05-16T07:15:24;6.80;;;5.67;;
16093;SDS011;8151;47.824;12.092;2023-05-16T07:17:53;8.13;;;5.43;;
16093;SDS011;8151;47.824;12.092;2023-05-16T07:20:24;6.03;;;5.43;;
16093;SDS011;8151;47.824;12.092;2023-05-16T07:22:53;9.07;;;5.53;;
16093;SDS011;8151;47.824;12.092;2023-05-16T07:25:24;5.93;;;5.17;;
16093;SDS011;8151;47.824;12.092;2023-05-16T07:27:54;6.70;;;5.63;;
16093;SDS011;8151;47.824;12.092;2023-05-16T07:30:23;6.57;;;5.87;;
16093;SDS011;8151;47.824;12.092;2023-05-16T07:32:51;7.17;;;5.60;;
16093;SDS011;8151;47.824;12.092;2023-05-16T07:35:20;6.87;;;5.60;;
16093;SDS011;8151;47.824;12.092;2023-05-16T07:37:51;7.10;;;5.70;;
16093;SDS011;8151;47.824;12.092;2023-05-16T07:40:19;7.20;;;5.87;;
16093;SDS011;8151;47.824;12.092;2023-05-16T07:42:55;6.43;;;5.50;;
16093;SDS011;8151;47.824;12.092;2023-05-16T07:45:24;7.73;;;6.10;;
16093;SDS011;8151;47.824;12.092;2023-05-16T07:47:53;7.50;;;6.70;;
16093;SDS011;8151;47.824;12.092;2023-05-16T07:50:22;9.80;;;7.20;;
16093;SDS011;8151;47.824;12.092;2023-05-16T07:52:52;7.03;;;6.33;;
16093;SDS011;8151;47.824;12.092;2023-05-16T07:55:21;7.10;;;6.40;;
16093;SDS011;8151;47.824;12.092;2023-05-16T07:57:50;7.33;;;6.20;;
16093;SDS011;8151;47.824;12.092;2023-05-16T08:00:19;8.20;;;6.90;;
16093;SDS011;8151;47.824;12.092;2023-05-16T08:02:48;7.10;;;6.40;;
16093;SDS011;8151;47.824;12.092;2023-05-16T08:05:17;8.53;;;6.23;;
16093;SDS011;8151;47.824;12.092;2023-05-16T08:07:46;11.40;;;6.37;;
16093;SDS011;8151;47.824;12.092;2023-05-16T08:10:16;11.60;;;6.77;;
16093;SDS011;8151;47.824;12.092;2023-05-16T08:12:44;7.87;;;6.43;;
16093;SDS011;8151;47.824;12.092;2023-05-16T08:15:14;7.90;;;6.17;;
16093;SDS011;8151;47.824;12.092;2023-05-16T08:17:42;6.43;;;5.53;;
16093;SDS011;8151;47.824;12.092;2023-05-16T08:20:17;8.07;;;6.40;;
16093;SDS011;8151;47.824;12.092;2023-05-16T08:22:45;12.50;;;5.93;;
16093;SDS011;8151;47.824;12.092;2023-05-16T08:25:14;7.67;;;5.43;;
16093;SDS011;8151;47.824;12.092;2023-05-16T08:27:44;6.47;;;5.83;;
16093;SDS011;8151;47.824;12.092;2023-05-16T08:30:13;7.97;;;6.13;;
16093;SDS011;8151;47.824;12.092;2023-05-16T08:32:41;9.13;;;6.97;;
16093;SDS011;8151;47.824;12.092;2023-05-16T08:35:10;6.93;;;6.20;;
16093;SDS011;8151;47.824;12.092;2023-05-16T08:37:42;11.67;;;6.73;;
16093;SDS011;8151;47.824;12.092;2023-05-16T08:40:10;17.97;;;11.03;;
16093;SDS011;8151;47.824;12.092;2023-05-16T08:42:42;11.03;;;9.10;;
16093;SDS011;8151;47.824;12.092;2023-05-16T08:45:11;7.83;;;6.60;;
16093;SDS011;8151;47.824;12.092;2023-05-16T08:47:40;7.43;;;6.37;;
16093;SDS011;8151;47.824;12.092;2023-05-16T08:50:11;8.43;;;7.30;;
16093;SDS011;8151;47.824;12.092;2023-05-16T08:52:40;7.30;;;6.50;;
16093;SDS011;8151;47.824;12.092;2023-05-16T08:55:11;11.30;;;6.60;;
16093;SDS011;8151;47.824;12.092;2023-05-16T08:57:43;13.03;;;8.13;;
16093;SDS011;8151;47.824;12.092;2023-05-16T09:00:18;8.50;;;6.30;;
16093;SDS011;8151;47.824;12.092;2023-05-16T09:02:53;7.20;;;6.50;;
16093;SDS011;8151;47.824;12.092;2023-05-16T09:05:23;7.60;;;6.73;;
16093;SDS011;8151;47.824;12.092;2023-05-16T09:07:53;8.67;;;6.90;;
16093;SDS011;8151;47.824;12.092;2023-05-16T09:10:22;8.73;;;7.13;;
16093;SDS011;8151;47.824;12.092;2023-05-16T09:12:52;8.40;;;7.57;;
16093;SDS011;8151;47.824;12.092;2023-05-16T09:15:21;11.87;;;8.10;;
16093;SDS011;8151;47.824;12.092;2023-05-16T09:17:49;8.13;;;7.10;;
16093;SDS011;8151;47.824;12.092;2023-05-16T09:20:18;23.83;;;11.00;;
16093;SDS011;8151;47.824;12.092;2023-05-16T09:22:54;13.23;;;9.60;;
16093;SDS011;8151;47.824;12.092;2023-05-16T09:25:25;9.60;;;7.03;;
16093;SDS011;8151;47.824;12.092;2023-05-16T09:27:59;20.77;;;10.47;;
16093;SDS011;8151;47.824;12.092;2023-05-16T09:30:30;10.63;;;8.00;;
16093;SDS011;8151;47.824;12.092;2023-05-16T09:33:00;14.33;;;9.33;;
16093;SDS011;8151;47.824;12.092;2023-05-16T09:35:29;15.80;;;10.17;;
16093;SDS011;8151;47.824;12.092;2023-05-16T09:38:01;13.00;;;8.33;;
16093;SDS011;8151;47.824;12.092;2023-05-16T09:40:29;10.80;;;9.17;;
16093;SDS011;8151;47.824;12.092;2023-05-16T09:43:02;14.37;;;8.60;;
16093;SDS011;8151;47.824;12.092;2023-05-16T09:45:33;14.37;;;10.70;;
16093;SDS011;8151;47.824;12.092;2023-05-16T09:48:03;13.27;;;11.03;;
16093;SDS011;8151;47.824;12.092;2023-05-16T09:50:33;8.30;;;7.40;;
16093;SDS011;8151;47.824;12.092;2023-05-16T09:53:02;14.40;;;8.20;;
16093;SDS011;8151;47.824;12.092;2023-05-16T09:55:31;10.23;;;8.20;;
16093;SDS011;8151;47.824;12.092;2023-05-16T09:58:00;7.80;;;7.00;;
16093;SDS011;8151;47.824;12.092;2023-05-16T10:00:30;11.40;;;8.23;;
16093;SDS011;8151;47.824;12.092;2023-05-16T10:03:10;8.90;;;6.73;;
16093;SDS011;8151;47.824;12.092;2023-05-16T10:05:39;7.37;;;6.67;;
16093;SDS011;8151;47.824;12.092;2023-05-16T10:08:09;15.07;;;10.23;;
16093;SDS011;8151;47.824;12.092;2023-05-16T10:10:38;11.23;;;9.33;;
16093;SDS011;8151;47.824;12.092;2023-05-16T10:13:07;11.70;;;8.90;;
16093;SDS011;8151;47.824;12.092;2023-05-16T10:15:38;10.93;;;8.13;;
16093;SDS011;8151;47.824;12.092;2023-05-16T10:18:06;13.33;;;10.37;;
16093;SDS011;8151;47.824;12.092;2023-05-16T10:20:40;9.13;;;7.43;;
16093;SDS011;8151;47.824;12.092;2023-05-16T10:23:11;10.10;;;8.43;;
16093;SDS011;8151;47.824;12.092;2023-05-16T10:25:44;8.33;;;7.37;;
16093;SDS011;8151;47.824;12.092;2023-05-16T10:28:14;11.33;;;8.53;;
16093;SDS011;8151;47.824;12.092;2023-05-16T10:30:45;8.47;;;7.60;;
16093;SDS011;8151;47.824;12.092;2023-05-16T10:33:14;10.70;;;9.47;;
16093;SDS011;8151;47.824;12.092;2023-05-16T10:35:44;10.00;;;8.13;;
16093;SDS011;8151;47.824;12.092;2023-05-16T10:38:14;8.87;;;7.70;;
16093;SDS011;8151;47.824;12.092;2023-05-16T10:40:44;8.87;;;7.67;;
16093;SDS011;8151;47.824;12.092;2023-05-16T10:43:21;9.23;;;7.00;;
16093;SDS011;8151;47.824;12.092;2023-05-16T10:45:56;7.87;;;7.07;;
16093;SDS011;8151;47.824;12.092;2023-05-16T10:48:29;13.20;;;8.83;;
16093;SDS011;8151;47.824;12.092;2023-05-16T10:50:58;7.73;;;7.03;;
16093;SDS011;8151;47.824;12.092;2023-05-16T10:53:29;11.10;;;8.73;;
16093;SDS011;8151;47.824;12.092;2023-05-16T10:56:05;9.53;;;7.63;;
16093;SDS011;8151;47.824;12.092;2023-05-16T10:58:42;10.83;;;8.13;;
16093;SDS011;8151;47.824;12.092;2023-05-16T11:01:20;31.03;;;18.17;;
16093;SDS011;8151;47.824;12.092;2023-05-16T11:04:09;24.40;;;15.53;;
16093;SDS011;8151;47.824;12.092;2023-05-16T11:06:45;10.73;;;8.47;;
16093;SDS011;8151;47.824;12.092;2023-05-16T11:09:18;15.30;;;9.87;;
16093;SDS011;8151;47.824;12.092;2023-05-16T11:11:53;15.90;;;10.03;;
16093;SDS011;8151;47.824;12.092;2023-05-16T11:14:36;10.80;;;7.97;;
16093;SDS011;8151;47.824;12.092;2023-05-16T11:17:10;17.47;;;11.17;;
16093;SDS011;8151;47.824;12.092;2023-05-16T11:19:43;13.50;;;9.50;;
16093;SDS011;8151;47.824;12.092;2023-05-16T11:22:12;14.13;;;9.67;;
16093;SDS011;8151;47.824;12.092;2023-05-16T11:24:51;11.63;;;8.93;;
16093;SDS011;8151;47.824;12.092;2023-05-16T11:27:22;10.43;;;8.50;;
16093;SDS011;8151;47.824;12.092;2023-05-16T11:29:53;10.30;;;8.13;;
16093;SDS011;8151;47.824;12.092;2023-05-16T11:32:30;10.73;;;8.70;;
16093;SDS011;8151;47.824;12.092;2023-05-16T11:35:02;9.40;;;8.43;;
16093;SDS011;8151;47.824;12.092;2023-05-16T11:37:34;10.67;;;8.70;;
16093;SDS011;8151;47.824;12.092;2023-05-16T11:40:04;11.40;;;9.13;;
16093;SDS011;8151;47.824;12.092;2023-05-16T11:42:35;11.03;;;9.40;;
16093;SDS011;8151;47.824;12.092;2023-05-16T11:45:06;13.50;;;10.20;;
16093;SDS011;8151;47.824;12.092;2023-05-16T11:47:37;11.90;;;10.47;;
16093;SDS011;8151;47.824;12.092;2023-05-16T11:50:10;12.80;;;9.97;;
16093;SDS011;8151;47.824;12.092;2023-05-16T11:52:41;11.03;;;9.93;;
16093;SDS011;8151;47.824;12.092;2023-05-16T11:55:11;9.77;;;8.77;;
16093;SDS011;8151;47.824;12.092;2023-05-16T11:57:50;16.20;;;9.30;;
16093;SDS011;8151;47.824;12.092;2023-05-16T12:00:20;10.00;;;9.00;;
16093;SDS011;8151;47.824;12.092;2023-05-16T12:02:51;14.27;;;10.27;;
16093;SDS011;8151;47.824;12.092;2023-05-16T12:05:21;13.00;;;10.37;;
16093;SDS011;8151;47.824;12.092;2023-05-16T12:07:54;15.23;;;11.27;;
16093;SDS011;8151;47.824;12.092;2023-05-16T12:10:24;12.97;;;10.53;;
16093;SDS011;8151;47.824;12.092;2023-05-16T12:12:53;13.80;;;10.83;;
16093;SDS011;8151;47.824;12.092;2023-05-16T12:15:23;14.43;;;10.37;;
16093;SDS011;8151;47.824;12.092;2023-05-16T12:17:54;13.37;;;9.90;;
16093;SDS011;8151;47.824;12.092;2023-05-16T12:20:23;12.77;;;11.13;;
16093;SDS011;8151;47.824;12.092;2023-05-16T12:22:52;12.27;;;10.30;;
16093;SDS011;8151;47.824;12.092;2023-05-16T12:25:21;12.53;;;11.13;;
16093;SDS011;8151;47.824;12.092;2023-05-16T12:27:51;14.77;;;12.13;;
16093;SDS011;8151;47.824;12.092;2023-05-16T12:30:21;14.40;;;11.67;;
16093;SDS011;8151;47.824;12.092;2023-05-16T12:32:51;13.93;;;9.97;;
16093;SDS011;8151;47.824;12.092;2023-05-16T12:35:25;10.50;;;9.37;;
16093;SDS011;8151;47.824;12.092;2023-05-16T12:37:58;10.40;;;9.40;;
16093;SDS011;8151;47.824;12.092;2023-05-16T12:40:27;12.33;;;10.00;;
16093;SDS011;8151;47.824;12.092;2023-05-16T12:42:57;12.70;;;9.97;;
16093;SDS011;8151;47.824;12.092;2023-05-16T12:45:27;18.50;;;14.97;;
16093;SDS011;8151;47.824;12.092;2023-05-16T12:48:00;10.83;;;9.10;;
16093;SDS011;8151;47.824;12.092;2023-05-16T12:50:32;11.87;;;9.80;;
16093;SDS011;8151;47.824;12.092;2023-05-16T12:53:08;11.03;;;9.83;;
16093;SDS011;8151;47.824;12.092;2023-05-16T12:55:39;11.33;;;8.87;;
16093;SDS011;8151;47.824;12.092;2023-05-16T12:58:08;11.40;;;9.97;;
16093;SDS011;8151;47.824;12.092;2023-05-16T13:00:37;22.27;;;16.90;;
16093;SDS011;8151;47.824;12.092;2023-05-16T13:03:07;13.03;;;11.73;;
16093;SDS011;8151;47.824;12.092;2023-05-16T13:05:36;12.70;;;10.20;;
16093;SDS011;8151;47.824;12.092;2023-05-16T13:08:05;12.27;;;10.27;;
16093;SDS011;8151;47.824;12.092;2023-05-16T13:10:34;12.70;;;10.80;;
16093;SDS011;8151;47.824;12.092;2023-05-16T13:13:04;12.13;;;10.07;;
16093;SDS011;8151;47.824;12.092;2023-05-16T13:15:32;11.43;;;9.73;;
16093;SDS011;8151;47.824;12.092;2023-05-16T13:18:01;11.03;;;9.93;;
16093;SDS011;8151;47.824;12.092;2023-05-16T13:20:31;13.33;;;10.83;;
16093;SDS011;8151;47.824;12.092;2023-05-16T13:23:00;13.83;;;11.43;;
16093;SDS011;8151;47.824;12.092;2023-05-16T13:25:28;12.77;;;11.43;;
16093;SDS011;8151;47.824;12.092;2023-05-16T13:27:56;12.33;;;11.03;;
16093;SDS011;8151;47.824;12.092;2023-05-16T13:30:25;13.63;;;11.13;;
16093;SDS011;8151;47.824;12.092;2023-05-16T13:32:54;14.40;;;12.27;;
16093;SDS011;8151;47.824;12.092;2023-05-16T13:35:25;13.77;;;12.27;;
16093;SDS011;8151;47.824;12.092;2023-05-16T13:37:55;14.63;;;12.57;;
16093;SDS011;8151;47.824;12.092;2023-05-16T13:40:24;14.63;;;13.07;;
16093;SDS011;8151;47.824;12.092;2023-05-16T13:42:53;13.93;;;12.40;;
16093;SDS011;8151;47.824;12.092;2023-05-16T13:45:22;17.20;;;12.73;;
16093;SDS011;8151;47.824;12.092;2023-05-16T13:47:51;15.27;;;12.93;;
16093;SDS011;8151;47.824;12.092;2023-05-16T13:50:19;14.20;;;12.53;;
16093;SDS011;8151;47.824;12.092;2023-05-16T13:52:48;14.20;;;12.20;;
16093;SDS011;8151;47.824;12.092;2023-05-16T13:55:18;17.07;;;12.33;;
16093;SDS011;8151;47.824;12.092;2023-05-16T13:57:56;14.93;;;12.50;;
16093;SDS011;8151;47.824;12.092;2023-05-16T14:00:25;14.30;;;12.23;;
16093;SDS011;8151;47.824;12.092;2023-05-16T14:03:11;12.47;;;11.17;;
16093;SDS011;8151;47.824;12.092;2023-05-16T14:05:39;13.97;;;12.47;;
16093;SDS011;8151;47.824;12.092;2023-05-16T14:08:08;9.27;;;8.20;;
16093;SDS011;8151;47.824;12.092;2023-05-16T14:10:38;7.33;;;4.80;;
16093;SDS011;8151;47.824;12.092;2023-05-16T14:13:06;5.37;;;4.87;;
16093;SDS011;8151;47.824;12.092;2023-05-16T14:15:35;5.20;;;4.20;;
16093;SDS011;8151;47.824;12.092;2023-05-16T14:18:03;4.03;;;3.73;;
16093;SDS011;8151;47.824;12.092;2023-05-16T14:20:33;4.43;;;4.03;;
16093;SDS011;8151;47.824;12.092;2023-05-16T14:23:02;6.00;;;4.30;;
16093;SDS011;8151;47.824;12.092;2023-05-16T14:25:30;5.07;;;4.03;;
16093;SDS011;8151;47.824;12.092;2023-05-16T14:28:01;4.23;;;3.93;;
16093;SDS011;8151;47.824;12.092;2023-05-16T14:30:30;4.83;;;3.93;;
16093;SDS011;8151;47.824;12.092;2023-05-16T14:33:00;5.27;;;4.77;;
16093;SDS011;8151;47.824;12.092;2023-05-16T14:35:29;5.00;;;4.47;;
16093;SDS011;8151;47.824;12.092;2023-05-16T14:38:01;5.10;;;4.60;;
16093;SDS011;8151;47.824;12.092;2023-05-16T14:40:29;4.13;;;3.37;;
16093;SDS011;8151;47.824;12.092;2023-05-16T14:42:58;4.37;;;4.00;;
16093;SDS011;8151;47.824;12.092;2023-05-16T14:45:31;4.97;;;4.30;;
16093;SDS011;8151;47.824;12.092;2023-05-16T14:48:00;5.70;;;4.87;;
16093;SDS011;8151;47.824;12.092;2023-05-16T14:50:30;6.67;;;4.33;;
16093;SDS011;8151;47.824;12.092;2023-05-16T14:53:01;6.63;;;5.30;;
16093;SDS011;8151;47.824;12.092;2023-05-16T14:55:30;6.37;;;5.10;;
16093;SDS011;8151;47.824;12.092;2023-05-16T14:57:59;5.10;;;4.40;;